sensor_id;sensor_type;location;lat;lon;timestamp;P1;durP1;ratioP1;P2;durP2;ratioP2
3099;SDS011;1560;52.746;13.474;2023-02-07T00:02:27;22.55;;;10.30;;
3099;SDS011;1560;52.746;13.474;2023-02-07T00:04:56;21.60;;;10.05;;
3099;SDS011;1560;52.746;13.474;2023-02-07T00:07:25;24.18;;;11.53;;
3099;SDS011;1560;52.746;13.474;2023-02-07T00:09:55;24.15;;;10.80;;
3099;SDS011;1560;52.746;13.474;2023-02-07T00:12:24;21.33;;;10.78;;
3099;SDS011;1560;52.746;13.474;2023-02-07T00:15:01;19.57;;;10.53;;
3099;SDS011;1560;52.746;13.474;2023-02-07T00:17:30;19.05;;;8.63;;
3099;SDS011;1560;52.746;13.474;2023-02-07T00:22:56;17.90;;;9.03;;
3099;SDS011;1560;52.746;13.474;2023-02-07T00:28:02;19.85;;;9.85;;
3099;SDS011;1560;52.746;13.474;2023-02-07T00:30:31;25.50;;;10.60;;
3099;SDS011;1560;52.746;13.474;2023-02-07T00:32:59;17.80;;;9.28;;
3099;SDS011;1560;52.746;13.474;2023-02-07T00:35:28;18.42;;;9.63;;
3099;SDS011;1560;52.746;13.474;2023-02-07T00:38:03;15.93;;;9.55;;
3099;SDS011;1560;52.746;13.474;2023-02-07T00:43:09;20.57;;;9.28;;
3099;SDS011;1560;52.746;13.474;2023-02-07T00:45:38;21.57;;;10.68;;
3099;SDS011;1560;52.746;13.474;2023-02-07T00:50:43;14.28;;;8.05;;
3099;SDS011;1560;52.746;13.474;2023-02-07T00:53:12;16.93;;;9.20;;
3099;SDS011;1560;52.746;13.474;2023-02-07T00:55:41;19.10;;;9.23;;
3099;SDS011;1560;52.746;13.474;2023-02-07T00:58:10;15.32;;;9.73;;
3099;SDS011;1560;52.746;13.474;2023-02-07T01:00:47;22.32;;;10.25;;
3099;SDS011;1560;52.746;13.474;2023-02-07T01:03:16;25.48;;;10.05;;
3099;SDS011;1560;52.746;13.474;2023-02-07T01:05:46;21.02;;;9.70;;
3099;SDS011;1560;52.746;13.474;2023-02-07T01:08:15;19.30;;;9.80;;
3099;SDS011;1560;52.746;13.474;2023-02-07T01:13:20;16.87;;;9.15;;
3099;SDS011;1560;52.746;13.474;2023-02-07T01:15:52;21.85;;;10.53;;
3099;SDS011;1560;52.746;13.474;2023-02-07T01:18:21;16.45;;;9.78;;
3099;SDS011;1560;52.746;13.474;2023-02-07T01:20:50;19.82;;;10.28;;
3099;SDS011;1560;52.746;13.474;2023-02-07T01:23:19;22.37;;;11.18;;
3099;SDS011;1560;52.746;13.474;2023-02-07T01:25:48;22.58;;;10.85;;
3099;SDS011;1560;52.746;13.474;2023-02-07T01:28:17;22.30;;;10.58;;
3099;SDS011;1560;52.746;13.474;2023-02-07T01:30:45;21.40;;;12.00;;
3099;SDS011;1560;52.746;13.474;2023-02-07T01:33:23;19.77;;;10.05;;
3099;SDS011;1560;52.746;13.474;2023-02-07T01:35:52;17.90;;;10.58;;
3099;SDS011;1560;52.746;13.474;2023-02-07T01:38:33;19.42;;;10.72;;
3099;SDS011;1560;52.746;13.474;2023-02-07T01:41:02;16.57;;;9.85;;
3099;SDS011;1560;52.746;13.474;2023-02-07T01:43:31;16.62;;;9.75;;
3099;SDS011;1560;52.746;13.474;2023-02-07T01:48:37;24.37;;;11.55;;
3099;SDS011;1560;52.746;13.474;2023-02-07T01:51:06;24.00;;;10.25;;
3099;SDS011;1560;52.746;13.474;2023-02-07T01:53:35;22.30;;;11.15;;
3099;SDS011;1560;52.746;13.474;2023-02-07T01:58:43;21.57;;;10.65;;
3099;SDS011;1560;52.746;13.474;2023-02-07T02:01:14;21.95;;;10.15;;
3099;SDS011;1560;52.746;13.474;2023-02-07T02:03:53;18.12;;;9.30;;
3099;SDS011;1560;52.746;13.474;2023-02-07T02:06:23;24.18;;;9.75;;
3099;SDS011;1560;52.746;13.474;2023-02-07T02:08:56;22.82;;;11.88;;
3099;SDS011;1560;52.746;13.474;2023-02-07T02:11:35;21.95;;;10.50;;
3099;SDS011;1560;52.746;13.474;2023-02-07T02:14:11;16.17;;;8.40;;
3099;SDS011;1560;52.746;13.474;2023-02-07T02:16:46;19.65;;;8.93;;
3099;SDS011;1560;52.746;13.474;2023-02-07T02:19:38;17.65;;;9.50;;
3099;SDS011;1560;52.746;13.474;2023-02-07T02:22:23;23.20;;;10.68;;
3099;SDS011;1560;52.746;13.474;2023-02-07T02:25:20;20.08;;;9.53;;
3099;SDS011;1560;52.746;13.474;2023-02-07T02:28:08;21.17;;;10.48;;
3099;SDS011;1560;52.746;13.474;2023-02-07T02:30:51;15.70;;;9.15;;
3099;SDS011;1560;52.746;13.474;2023-02-07T02:33:38;22.13;;;9.10;;
3099;SDS011;1560;52.746;13.474;2023-02-07T02:38:49;13.80;;;8.80;;
3099;SDS011;1560;52.746;13.474;2023-02-07T02:43:57;20.62;;;9.83;;
3099;SDS011;1560;52.746;13.474;2023-02-07T02:46:30;14.30;;;8.90;;
3099;SDS011;1560;52.746;13.474;2023-02-07T02:49:02;16.12;;;8.40;;
3099;SDS011;1560;52.746;13.474;2023-02-07T02:51:32;15.32;;;8.28;;
3099;SDS011;1560;52.746;13.474;2023-02-07T02:54:01;20.57;;;9.55;;
3099;SDS011;1560;52.746;13.474;2023-02-07T02:56:44;16.57;;;9.80;;
3099;SDS011;1560;52.746;13.474;2023-02-07T02:59:31;20.52;;;9.68;;
3099;SDS011;1560;52.746;13.474;2023-02-07T03:02:08;21.10;;;8.35;;
3099;SDS011;1560;52.746;13.474;2023-02-07T03:04:46;19.15;;;9.33;;
3099;SDS011;1560;52.746;13.474;2023-02-07T03:07:28;18.40;;;8.73;;
3099;SDS011;1560;52.746;13.474;2023-02-07T03:10:03;17.07;;;9.40;;
3099;SDS011;1560;52.746;13.474;2023-02-07T03:12:36;20.37;;;9.88;;
3099;SDS011;1560;52.746;13.474;2023-02-07T03:15:14;23.73;;;9.15;;
3099;SDS011;1560;52.746;13.474;2023-02-07T03:17:46;17.90;;;9.08;;
3099;SDS011;1560;52.746;13.474;2023-02-07T03:20:25;23.95;;;9.85;;
3099;SDS011;1560;52.746;13.474;2023-02-07T03:22:57;17.95;;;9.43;;
3099;SDS011;1560;52.746;13.474;2023-02-07T03:25:36;23.05;;;10.43;;
3099;SDS011;1560;52.746;13.474;2023-02-07T03:28:10;19.60;;;9.15;;
3099;SDS011;1560;52.746;13.474;2023-02-07T03:30:48;20.30;;;10.15;;
3099;SDS011;1560;52.746;13.474;2023-02-07T03:33:19;18.02;;;9.95;;
3099;SDS011;1560;52.746;13.474;2023-02-07T03:35:48;18.60;;;9.20;;
3099;SDS011;1560;52.746;13.474;2023-02-07T03:38:21;17.80;;;9.33;;
3099;SDS011;1560;52.746;13.474;2023-02-07T03:40:51;19.32;;;10.35;;
3099;SDS011;1560;52.746;13.474;2023-02-07T03:45:59;19.62;;;10.00;;
3099;SDS011;1560;52.746;13.474;2023-02-07T03:48:28;22.30;;;10.43;;
3099;SDS011;1560;52.746;13.474;2023-02-07T03:51:07;29.12;;;10.43;;
3099;SDS011;1560;52.746;13.474;2023-02-07T03:53:36;17.90;;;9.70;;
3099;SDS011;1560;52.746;13.474;2023-02-07T03:56:13;25.95;;;11.48;;
3099;SDS011;1560;52.746;13.474;2023-02-07T03:58:42;22.07;;;9.40;;
3099;SDS011;1560;52.746;13.474;2023-02-07T04:03:47;33.70;;;15.88;;
3099;SDS011;1560;52.746;13.474;2023-02-07T04:06:16;19.85;;;10.38;;
3099;SDS011;1560;52.746;13.474;2023-02-07T04:08:45;27.50;;;10.70;;
3099;SDS011;1560;52.746;13.474;2023-02-07T04:11:14;16.20;;;9.58;;
3099;SDS011;1560;52.746;13.474;2023-02-07T04:13:42;20.60;;;11.30;;
3099;SDS011;1560;52.746;13.474;2023-02-07T04:16:11;23.75;;;10.60;;
3099;SDS011;1560;52.746;13.474;2023-02-07T04:18:40;21.57;;;11.12;;
3099;SDS011;1560;52.746;13.474;2023-02-07T04:21:09;22.35;;;12.73;;
3099;SDS011;1560;52.746;13.474;2023-02-07T04:26:14;23.20;;;10.82;;
3099;SDS011;1560;52.746;13.474;2023-02-07T04:28:42;17.50;;;9.45;;
3099;SDS011;1560;52.746;13.474;2023-02-07T04:31:11;21.10;;;10.78;;
3099;SDS011;1560;52.746;13.474;2023-02-07T04:36:16;21.87;;;11.05;;
3099;SDS011;1560;52.746;13.474;2023-02-07T04:38:45;25.15;;;10.72;;
3099;SDS011;1560;52.746;13.474;2023-02-07T04:43:50;20.35;;;11.18;;
3099;SDS011;1560;52.746;13.474;2023-02-07T04:46:19;22.50;;;9.93;;
3099;SDS011;1560;52.746;13.474;2023-02-07T04:48:48;18.07;;;9.25;;
3099;SDS011;1560;52.746;13.474;2023-02-07T04:51:17;19.90;;;9.83;;
3099;SDS011;1560;52.746;13.474;2023-02-07T04:53:45;18.87;;;9.80;;
3099;SDS011;1560;52.746;13.474;2023-02-07T04:56:14;29.40;;;12.30;;
3099;SDS011;1560;52.746;13.474;2023-02-07T04:58:50;21.70;;;9.90;;
3099;SDS011;1560;52.746;13.474;2023-02-07T05:01:19;20.08;;;10.65;;
3099;SDS011;1560;52.746;13.474;2023-02-07T05:03:57;20.40;;;11.03;;
3099;SDS011;1560;52.746;13.474;2023-02-07T05:06:25;24.65;;;13.40;;
3099;SDS011;1560;52.746;13.474;2023-02-07T05:09:03;21.07;;;12.85;;
3099;SDS011;1560;52.746;13.474;2023-02-07T05:14:08;25.20;;;11.70;;
3099;SDS011;1560;52.746;13.474;2023-02-07T05:16:37;20.77;;;12.00;;
3099;SDS011;1560;52.746;13.474;2023-02-07T05:19:14;24.57;;;13.05;;
3099;SDS011;1560;52.746;13.474;2023-02-07T05:24:20;29.25;;;12.93;;
3099;SDS011;1560;52.746;13.474;2023-02-07T05:26:49;22.27;;;11.53;;
3099;SDS011;1560;52.746;13.474;2023-02-07T05:31:55;23.80;;;11.93;;
3099;SDS011;1560;52.746;13.474;2023-02-07T05:34:42;22.82;;;13.05;;
3099;SDS011;1560;52.746;13.474;2023-02-07T05:37:10;26.77;;;14.98;;
3099;SDS011;1560;52.746;13.474;2023-02-07T05:39:48;22.75;;;12.85;;
3099;SDS011;1560;52.746;13.474;2023-02-07T05:42:17;22.98;;;11.83;;
3099;SDS011;1560;52.746;13.474;2023-02-07T05:44:46;27.48;;;13.10;;
3099;SDS011;1560;52.746;13.474;2023-02-07T05:47:15;26.70;;;14.03;;
3099;SDS011;1560;52.746;13.474;2023-02-07T05:49:44;37.10;;;15.63;;
3099;SDS011;1560;52.746;13.474;2023-02-07T05:54:49;38.48;;;19.50;;
3099;SDS011;1560;52.746;13.474;2023-02-07T05:57:18;31.95;;;16.15;;
3099;SDS011;1560;52.746;13.474;2023-02-07T05:59:47;24.77;;;11.73;;
3099;SDS011;1560;52.746;13.474;2023-02-07T06:02:15;25.55;;;12.80;;
3099;SDS011;1560;52.746;13.474;2023-02-07T06:07:21;24.30;;;13.85;;
3099;SDS011;1560;52.746;13.474;2023-02-07T06:09:49;32.88;;;17.05;;
3099;SDS011;1560;52.746;13.474;2023-02-07T06:14:55;57.08;;;26.12;;
3099;SDS011;1560;52.746;13.474;2023-02-07T06:17:24;47.48;;;20.85;;
3099;SDS011;1560;52.746;13.474;2023-02-07T06:19:53;40.60;;;21.15;;
3099;SDS011;1560;52.746;13.474;2023-02-07T06:25:00;32.88;;;17.45;;
3099;SDS011;1560;52.746;13.474;2023-02-07T06:32:41;44.27;;;20.55;;
3099;SDS011;1560;52.746;13.474;2023-02-07T06:38:07;35.50;;;19.95;;
3099;SDS011;1560;52.746;13.474;2023-02-07T06:43:24;35.75;;;19.67;;
3099;SDS011;1560;52.746;13.474;2023-02-07T06:45:55;39.13;;;21.68;;
3099;SDS011;1560;52.746;13.474;2023-02-07T06:48:24;40.35;;;19.80;;
3099;SDS011;1560;52.746;13.474;2023-02-07T06:51:05;33.35;;;18.52;;
3099;SDS011;1560;52.746;13.474;2023-02-07T06:53:34;40.52;;;19.85;;
3099;SDS011;1560;52.746;13.474;2023-02-07T06:56:15;51.05;;;26.37;;
3099;SDS011;1560;52.746;13.474;2023-02-07T07:03:55;41.20;;;19.07;;
3099;SDS011;1560;52.746;13.474;2023-02-07T07:09:21;37.83;;;20.25;;
3099;SDS011;1560;52.746;13.474;2023-02-07T07:11:59;36.30;;;16.25;;
3099;SDS011;1560;52.746;13.474;2023-02-07T07:14:27;33.95;;;17.60;;
3099;SDS011;1560;52.746;13.474;2023-02-07T07:17:13;42.67;;;19.60;;
3099;SDS011;1560;52.746;13.474;2023-02-07T07:19:41;33.73;;;18.27;;
3099;SDS011;1560;52.746;13.474;2023-02-07T07:22:10;31.57;;;16.10;;
3099;SDS011;1560;52.746;13.474;2023-02-07T07:30:12;31.00;;;16.25;;
3099;SDS011;1560;52.746;13.474;2023-02-07T07:35:20;33.90;;;16.55;;
3099;SDS011;1560;52.746;13.474;2023-02-07T07:40:40;37.08;;;17.17;;
3099;SDS011;1560;52.746;13.474;2023-02-07T07:45:54;30.10;;;15.13;;
3099;SDS011;1560;52.746;13.474;2023-02-07T07:48:25;34.92;;;17.00;;
3099;SDS011;1560;52.746;13.474;2023-02-07T07:51:12;29.87;;;15.72;;
3099;SDS011;1560;52.746;13.474;2023-02-07T07:53:41;34.15;;;16.57;;
3099;SDS011;1560;52.746;13.474;2023-02-07T07:58:46;32.15;;;15.20;;
3099;SDS011;1560;52.746;13.474;2023-02-07T08:01:15;27.75;;;14.58;;
3099;SDS011;1560;52.746;13.474;2023-02-07T08:06:20;36.50;;;16.75;;
3099;SDS011;1560;52.746;13.474;2023-02-07T08:08:49;32.95;;;18.05;;
3099;SDS011;1560;52.746;13.474;2023-02-07T08:13:54;34.33;;;17.45;;
3099;SDS011;1560;52.746;13.474;2023-02-07T08:16:23;34.03;;;18.07;;
3099;SDS011;1560;52.746;13.474;2023-02-07T08:18:52;33.10;;;16.17;;
3099;SDS011;1560;52.746;13.474;2023-02-07T08:21:21;33.95;;;17.65;;
3099;SDS011;1560;52.746;13.474;2023-02-07T08:23:52;37.78;;;18.23;;
3099;SDS011;1560;52.746;13.474;2023-02-07T08:26:26;35.98;;;18.80;;
3099;SDS011;1560;52.746;13.474;2023-02-07T08:28:55;35.05;;;18.40;;
3099;SDS011;1560;52.746;13.474;2023-02-07T08:31:24;41.80;;;21.00;;
3099;SDS011;1560;52.746;13.474;2023-02-07T08:36:29;39.58;;;19.07;;
3099;SDS011;1560;52.746;13.474;2023-02-07T08:38:58;33.18;;;19.70;;
3099;SDS011;1560;52.746;13.474;2023-02-07T08:44:15;33.63;;;20.08;;
3099;SDS011;1560;52.746;13.474;2023-02-07T08:46:44;35.08;;;20.72;;
3099;SDS011;1560;52.746;13.474;2023-02-07T08:49:13;40.60;;;21.65;;
3099;SDS011;1560;52.746;13.474;2023-02-07T08:54:18;35.50;;;19.87;;
3099;SDS011;1560;52.746;13.474;2023-02-07T08:56:47;38.78;;;20.30;;
3099;SDS011;1560;52.746;13.474;2023-02-07T08:59:25;36.48;;;19.75;;
3099;SDS011;1560;52.746;13.474;2023-02-07T09:01:54;42.03;;;21.45;;
3099;SDS011;1560;52.746;13.474;2023-02-07T09:04:23;40.33;;;18.50;;
3099;SDS011;1560;52.746;13.474;2023-02-07T09:06:52;44.33;;;22.32;;
3099;SDS011;1560;52.746;13.474;2023-02-07T09:09:21;41.58;;;22.85;;
3099;SDS011;1560;52.746;13.474;2023-02-07T09:11:50;39.53;;;21.60;;
3099;SDS011;1560;52.746;13.474;2023-02-07T09:14:19;46.80;;;22.90;;
3099;SDS011;1560;52.746;13.474;2023-02-07T09:19:24;39.20;;;20.85;;
3099;SDS011;1560;52.746;13.474;2023-02-07T09:21:53;52.83;;;23.98;;
3099;SDS011;1560;52.746;13.474;2023-02-07T09:24:21;47.60;;;24.43;;
3099;SDS011;1560;52.746;13.474;2023-02-07T09:26:50;54.58;;;29.23;;
3099;SDS011;1560;52.746;13.474;2023-02-07T09:31:55;46.08;;;27.20;;
3099;SDS011;1560;52.746;13.474;2023-02-07T09:34:24;40.50;;;24.98;;
3099;SDS011;1560;52.746;13.474;2023-02-07T09:36:53;48.40;;;27.17;;
3099;SDS011;1560;52.746;13.474;2023-02-07T09:39:22;47.08;;;27.27;;
3099;SDS011;1560;52.746;13.474;2023-02-07T09:41:56;49.33;;;29.45;;
3099;SDS011;1560;52.746;13.474;2023-02-07T09:47:06;51.95;;;27.55;;
3099;SDS011;1560;52.746;13.474;2023-02-07T09:49:37;41.37;;;26.20;;
3099;SDS011;1560;52.746;13.474;2023-02-07T09:52:10;50.03;;;27.93;;
3099;SDS011;1560;52.746;13.474;2023-02-07T09:57:18;62.00;;;34.98;;
3099;SDS011;1560;52.746;13.474;2023-02-07T09:59:50;57.98;;;31.97;;
3099;SDS011;1560;52.746;13.474;2023-02-07T10:02:22;56.58;;;33.48;;
3099;SDS011;1560;52.746;13.474;2023-02-07T10:04:54;61.20;;;34.90;;
3099;SDS011;1560;52.746;13.474;2023-02-07T10:07:33;58.85;;;33.45;;
3099;SDS011;1560;52.746;13.474;2023-02-07T10:10:02;57.03;;;31.05;;
3099;SDS011;1560;52.746;13.474;2023-02-07T10:12:42;58.02;;;31.15;;
3099;SDS011;1560;52.746;13.474;2023-02-07T10:18:41;51.63;;;31.00;;
3099;SDS011;1560;52.746;13.474;2023-02-07T10:21:14;55.15;;;29.77;;
3099;SDS011;1560;52.746;13.474;2023-02-07T10:23:51;52.13;;;29.98;;
3099;SDS011;1560;52.746;13.474;2023-02-07T10:26:26;46.77;;;28.30;;
3099;SDS011;1560;52.746;13.474;2023-02-07T10:29:12;45.08;;;28.25;;
3099;SDS011;1560;52.746;13.474;2023-02-07T10:31:58;45.28;;;26.62;;
3099;SDS011;1560;52.746;13.474;2023-02-07T10:34:30;46.65;;;26.70;;
3099;SDS011;1560;52.746;13.474;2023-02-07T10:37:05;46.48;;;22.35;;
3099;SDS011;1560;52.746;13.474;2023-02-07T10:39:40;41.45;;;22.27;;
3099;SDS011;1560;52.746;13.474;2023-02-07T10:42:12;41.10;;;23.05;;
3099;SDS011;1560;52.746;13.474;2023-02-07T10:47:19;33.88;;;19.25;;
3099;SDS011;1560;52.746;13.474;2023-02-07T10:49:48;40.10;;;21.17;;
3099;SDS011;1560;52.746;13.474;2023-02-07T10:52:28;29.27;;;18.32;;
3099;SDS011;1560;52.746;13.474;2023-02-07T10:55:00;30.80;;;18.55;;
3099;SDS011;1560;52.746;13.474;2023-02-07T10:57:31;32.15;;;16.87;;
3099;SDS011;1560;52.746;13.474;2023-02-07T11:00:01;32.42;;;17.32;;
3099;SDS011;1560;52.746;13.474;2023-02-07T11:05:25;27.17;;;16.35;;
3099;SDS011;1560;52.746;13.474;2023-02-07T11:07:57;36.15;;;19.37;;
3099;SDS011;1560;52.746;13.474;2023-02-07T11:10:28;35.90;;;18.73;;
3099;SDS011;1560;52.746;13.474;2023-02-07T11:13:00;32.03;;;19.07;;
3099;SDS011;1560;52.746;13.474;2023-02-07T11:15:36;34.58;;;17.98;;
3099;SDS011;1560;52.746;13.474;2023-02-07T11:18:18;27.17;;;16.20;;
3099;SDS011;1560;52.746;13.474;2023-02-07T11:20:55;32.13;;;18.30;;
3099;SDS011;1560;52.746;13.474;2023-02-07T11:23:24;30.55;;;16.82;;
3099;SDS011;1560;52.746;13.474;2023-02-07T11:25:53;34.83;;;17.70;;
3099;SDS011;1560;52.746;13.474;2023-02-07T11:28:24;33.20;;;16.27;;
3099;SDS011;1560;52.746;13.474;2023-02-07T11:30:56;28.92;;;18.75;;
3099;SDS011;1560;52.746;13.474;2023-02-07T11:33:30;29.48;;;17.65;;
3099;SDS011;1560;52.746;13.474;2023-02-07T11:36:00;31.68;;;17.95;;
3099;SDS011;1560;52.746;13.474;2023-02-07T11:38:36;32.98;;;17.10;;
3099;SDS011;1560;52.746;13.474;2023-02-07T11:41:08;34.08;;;16.30;;
3099;SDS011;1560;52.746;13.474;2023-02-07T11:43:54;29.35;;;15.93;;
3099;SDS011;1560;52.746;13.474;2023-02-07T11:46:33;30.08;;;15.78;;
3099;SDS011;1560;52.746;13.474;2023-02-07T11:51:41;24.57;;;14.30;;
3099;SDS011;1560;52.746;13.474;2023-02-07T11:54:10;25.50;;;16.10;;
3099;SDS011;1560;52.746;13.474;2023-02-07T11:56:42;26.60;;;14.75;;
3099;SDS011;1560;52.746;13.474;2023-02-07T11:59:14;28.00;;;14.45;;
3099;SDS011;1560;52.746;13.474;2023-02-07T12:01:47;29.45;;;15.05;;
3099;SDS011;1560;52.746;13.474;2023-02-07T12:04:19;23.95;;;15.68;;
3099;SDS011;1560;52.746;13.474;2023-02-07T12:06:51;29.87;;;14.95;;
3099;SDS011;1560;52.746;13.474;2023-02-07T12:09:32;29.02;;;15.70;;
3099;SDS011;1560;52.746;13.474;2023-02-07T12:14:40;30.05;;;16.50;;
3099;SDS011;1560;52.746;13.474;2023-02-07T12:17:13;21.55;;;14.40;;
3099;SDS011;1560;52.746;13.474;2023-02-07T12:19:48;28.52;;;15.25;;
3099;SDS011;1560;52.746;13.474;2023-02-07T12:22:19;26.60;;;14.10;;
3099;SDS011;1560;52.746;13.474;2023-02-07T12:24:51;29.75;;;15.48;;
3099;SDS011;1560;52.746;13.474;2023-02-07T12:27:24;40.73;;;22.37;;
3099;SDS011;1560;52.746;13.474;2023-02-07T12:32:36;27.10;;;15.08;;
3099;SDS011;1560;52.746;13.474;2023-02-07T12:35:12;26.73;;;14.75;;
3099;SDS011;1560;52.746;13.474;2023-02-07T12:40:21;26.82;;;15.20;;
3099;SDS011;1560;52.746;13.474;2023-02-07T12:42:54;27.80;;;15.13;;
3099;SDS011;1560;52.746;13.474;2023-02-07T12:45:30;29.92;;;16.50;;
3099;SDS011;1560;52.746;13.474;2023-02-07T12:50:52;27.80;;;14.65;;
3099;SDS011;1560;52.746;13.474;2023-02-07T12:53:29;22.95;;;13.70;;
3099;SDS011;1560;52.746;13.474;2023-02-07T12:56:04;30.45;;;13.30;;
3099;SDS011;1560;52.746;13.474;2023-02-07T12:58:48;29.67;;;14.65;;
3099;SDS011;1560;52.746;13.474;2023-02-07T13:01:23;29.35;;;12.95;;
3099;SDS011;1560;52.746;13.474;2023-02-07T13:04:00;21.65;;;13.03;;
3099;SDS011;1560;52.746;13.474;2023-02-07T13:06:40;25.02;;;14.53;;
3099;SDS011;1560;52.746;13.474;2023-02-07T13:09:13;35.05;;;17.60;;
3099;SDS011;1560;52.746;13.474;2023-02-07T13:11:47;31.07;;;16.62;;
3099;SDS011;1560;52.746;13.474;2023-02-07T13:14:20;24.00;;;15.48;;
3099;SDS011;1560;52.746;13.474;2023-02-07T13:16:55;31.65;;;17.40;;
3099;SDS011;1560;52.746;13.474;2023-02-07T13:19:29;37.75;;;17.70;;
3099;SDS011;1560;52.746;13.474;2023-02-07T13:22:02;29.35;;;16.75;;
3099;SDS011;1560;52.746;13.474;2023-02-07T13:27:11;30.97;;;16.75;;
3099;SDS011;1560;52.746;13.474;2023-02-07T13:29:42;30.32;;;15.70;;
3099;SDS011;1560;52.746;13.474;2023-02-07T13:32:15;30.70;;;15.68;;
3099;SDS011;1560;52.746;13.474;2023-02-07T13:34:47;26.90;;;16.30;;
3099;SDS011;1560;52.746;13.474;2023-02-07T13:37:18;26.52;;;15.35;;
3099;SDS011;1560;52.746;13.474;2023-02-07T13:39:54;25.17;;;16.00;;
3099;SDS011;1560;52.746;13.474;2023-02-07T13:42:34;32.10;;;15.15;;
3099;SDS011;1560;52.746;13.474;2023-02-07T13:45:07;28.62;;;14.35;;
3099;SDS011;1560;52.746;13.474;2023-02-07T13:50:20;26.55;;;15.80;;
3099;SDS011;1560;52.746;13.474;2023-02-07T13:53:04;29.75;;;15.50;;
3099;SDS011;1560;52.746;13.474;2023-02-07T13:55:44;29.00;;;16.73;;
3099;SDS011;1560;52.746;13.474;2023-02-07T14:01:37;23.83;;;14.45;;
3099;SDS011;1560;52.746;13.474;2023-02-07T14:04:21;26.82;;;14.68;;
3099;SDS011;1560;52.746;13.474;2023-02-07T14:07:00;25.17;;;13.85;;
3099;SDS011;1560;52.746;13.474;2023-02-07T14:09:33;31.60;;;16.77;;
3099;SDS011;1560;52.746;13.474;2023-02-07T14:12:05;29.32;;;17.07;;
3099;SDS011;1560;52.746;13.474;2023-02-07T14:14:36;22.52;;;14.25;;
3099;SDS011;1560;52.746;13.474;2023-02-07T14:17:06;27.00;;;14.47;;
3099;SDS011;1560;52.746;13.474;2023-02-07T14:19:52;28.00;;;15.23;;
3099;SDS011;1560;52.746;13.474;2023-02-07T14:22:23;27.95;;;14.47;;
3099;SDS011;1560;52.746;13.474;2023-02-07T14:30:56;22.73;;;15.18;;
3099;SDS011;1560;52.746;13.474;2023-02-07T14:33:32;32.88;;;16.12;;
3099;SDS011;1560;52.746;13.474;2023-02-07T14:36:03;27.27;;;15.13;;
3099;SDS011;1560;52.746;13.474;2023-02-07T14:41:41;23.95;;;14.68;;
3099;SDS011;1560;52.746;13.474;2023-02-07T14:44:21;23.80;;;13.22;;
3099;SDS011;1560;52.746;13.474;2023-02-07T14:46:51;27.37;;;15.68;;
3099;SDS011;1560;52.746;13.474;2023-02-07T14:49:25;27.17;;;14.68;;
3099;SDS011;1560;52.746;13.474;2023-02-07T14:51:57;28.35;;;14.80;;
3099;SDS011;1560;52.746;13.474;2023-02-07T14:54:30;26.07;;;14.95;;
3099;SDS011;1560;52.746;13.474;2023-02-07T14:57:03;25.00;;;14.00;;
3099;SDS011;1560;52.746;13.474;2023-02-07T14:59:35;28.07;;;13.58;;
3099;SDS011;1560;52.746;13.474;2023-02-07T15:02:25;28.25;;;15.98;;
3099;SDS011;1560;52.746;13.474;2023-02-07T15:04:57;22.93;;;14.33;;
3099;SDS011;1560;52.746;13.474;2023-02-07T15:07:27;21.62;;;14.15;;
3099;SDS011;1560;52.746;13.474;2023-02-07T15:09:57;25.25;;;15.23;;
3099;SDS011;1560;52.746;13.474;2023-02-07T15:15:03;22.90;;;13.68;;
3099;SDS011;1560;52.746;13.474;2023-02-07T15:20:15;23.40;;;13.30;;
3099;SDS011;1560;52.746;13.474;2023-02-07T15:22:48;23.52;;;14.47;;
3099;SDS011;1560;52.746;13.474;2023-02-07T15:25:19;26.68;;;13.35;;
3099;SDS011;1560;52.746;13.474;2023-02-07T15:28:00;22.75;;;13.10;;
3099;SDS011;1560;52.746;13.474;2023-02-07T15:33:09;20.85;;;13.22;;
3099;SDS011;1560;52.746;13.474;2023-02-07T15:35:41;22.98;;;13.38;;
3099;SDS011;1560;52.746;13.474;2023-02-07T15:38:15;28.60;;;14.50;;
3099;SDS011;1560;52.746;13.474;2023-02-07T15:40:51;29.77;;;15.40;;
3099;SDS011;1560;52.746;13.474;2023-02-07T15:43:31;25.57;;;14.98;;
3099;SDS011;1560;52.746;13.474;2023-02-07T15:46:04;25.68;;;13.78;;
3099;SDS011;1560;52.746;13.474;2023-02-07T15:51:22;26.48;;;14.28;;
3099;SDS011;1560;52.746;13.474;2023-02-07T15:53:55;23.57;;;13.18;;
3099;SDS011;1560;52.746;13.474;2023-02-07T15:56:28;30.00;;;14.65;;
3099;SDS011;1560;52.746;13.474;2023-02-07T15:59:09;28.98;;;16.52;;
3099;SDS011;1560;52.746;13.474;2023-02-07T16:04:29;25.37;;;15.00;;
3099;SDS011;1560;52.746;13.474;2023-02-07T16:07:02;30.50;;;18.40;;
3099;SDS011;1560;52.746;13.474;2023-02-07T16:09:37;34.63;;;18.77;;
3099;SDS011;1560;52.746;13.474;2023-02-07T16:14:58;34.33;;;18.90;;
3099;SDS011;1560;52.746;13.474;2023-02-07T16:20:15;36.80;;;18.67;;
3099;SDS011;1560;52.746;13.474;2023-02-07T16:22:44;37.55;;;18.10;;
3099;SDS011;1560;52.746;13.474;2023-02-07T16:25:15;39.88;;;20.12;;
3099;SDS011;1560;52.746;13.474;2023-02-07T16:28:06;30.68;;;19.92;;
3099;SDS011;1560;52.746;13.474;2023-02-07T16:30:43;64.40;;;35.68;;
3099;SDS011;1560;52.746;13.474;2023-02-07T16:33:14;71.28;;;38.15;;
3099;SDS011;1560;52.746;13.474;2023-02-07T16:35:48;56.37;;;30.70;;
3099;SDS011;1560;52.746;13.474;2023-02-07T16:51:41;37.17;;;20.82;;
3099;SDS011;1560;52.746;13.474;2023-02-07T16:54:16;38.35;;;21.45;;
3099;SDS011;1560;52.746;13.474;2023-02-07T16:56:48;36.63;;;17.48;;
3099;SDS011;1560;52.746;13.474;2023-02-07T17:01:55;31.15;;;18.45;;
3099;SDS011;1560;52.746;13.474;2023-02-07T17:04:25;34.20;;;18.00;;
3099;SDS011;1560;52.746;13.474;2023-02-07T17:06:53;29.57;;;18.42;;
3099;SDS011;1560;52.746;13.474;2023-02-07T17:09:23;35.23;;;21.68;;
3099;SDS011;1560;52.746;13.474;2023-02-07T17:12:02;32.88;;;19.50;;
3099;SDS011;1560;52.746;13.474;2023-02-07T17:14:32;35.88;;;19.95;;
3099;SDS011;1560;52.746;13.474;2023-02-07T17:17:05;36.88;;;20.55;;
3099;SDS011;1560;52.746;13.474;2023-02-07T17:20:00;28.50;;;17.42;;
3099;SDS011;1560;52.746;13.474;2023-02-07T17:22:29;30.65;;;18.35;;
3099;SDS011;1560;52.746;13.474;2023-02-07T17:24:58;27.52;;;16.73;;
3099;SDS011;1560;52.746;13.474;2023-02-07T17:27:29;28.77;;;17.25;;
3099;SDS011;1560;52.746;13.474;2023-02-07T17:29:57;29.30;;;16.15;;
3099;SDS011;1560;52.746;13.474;2023-02-07T17:32:27;27.25;;;16.67;;
3099;SDS011;1560;52.746;13.474;2023-02-07T17:35:05;28.23;;;16.32;;
3099;SDS011;1560;52.746;13.474;2023-02-07T17:37:41;37.23;;;19.87;;
3099;SDS011;1560;52.746;13.474;2023-02-07T17:40:26;31.25;;;17.15;;
3099;SDS011;1560;52.746;13.474;2023-02-07T17:42:56;32.88;;;18.60;;
3099;SDS011;1560;52.746;13.474;2023-02-07T17:45:25;44.03;;;22.93;;
3099;SDS011;1560;52.746;13.474;2023-02-07T17:47:54;60.63;;;27.40;;
3099;SDS011;1560;52.746;13.474;2023-02-07T17:50:26;58.58;;;27.13;;
3099;SDS011;1560;52.746;13.474;2023-02-07T17:52:55;50.30;;;24.30;;
3099;SDS011;1560;52.746;13.474;2023-02-07T17:58:02;55.28;;;24.92;;
3099;SDS011;1560;52.746;13.474;2023-02-07T18:00:33;35.98;;;19.45;;
3099;SDS011;1560;52.746;13.474;2023-02-07T18:03:10;36.55;;;19.55;;
3099;SDS011;1560;52.746;13.474;2023-02-07T18:05:41;29.18;;;15.43;;
3099;SDS011;1560;52.746;13.474;2023-02-07T18:08:10;27.30;;;15.85;;
3099;SDS011;1560;52.746;13.474;2023-02-07T18:10:41;28.90;;;15.30;;
3099;SDS011;1560;52.746;13.474;2023-02-07T18:13:09;29.02;;;14.75;;
3099;SDS011;1560;52.746;13.474;2023-02-07T18:15:38;26.73;;;13.15;;
3099;SDS011;1560;52.746;13.474;2023-02-07T18:18:09;22.62;;;12.35;;
3099;SDS011;1560;52.746;13.474;2023-02-07T18:23:17;23.67;;;12.75;;